LiveATC.Net - Listen to live air traffic control over the Internet!


ICAO: KSAF  IATA: SAF   Airport: Santa Fe Municipal Airport
City: Santa Fe   State/Province: New Mexico
Country: United States   Continent: North America
KSAF METAR Weather: KSAF 032153Z 26017G32KT 10SM CLR 19/M11 A2975 RMK AO2 PK WND 25032/2150 SLP006 T01891111
KSAF ADS-B Flight Tracking  (ADSBExchange)
KSAF Flight Activity (FlightAware)
KSAF Airport Info   (iFlightPlanner)
KSAF VFR Sectional Chart   (iFlightPlanner) 
KSAF IFR Low Altitude Chart   (iFlightPlanner) 
KSAF IFR High Altitude Chart   (iFlightPlanner) 

KSAF Tower
Feed Status: UP   Listeners: 0
Listen in your browser - HTML5 player (in browser, HTML5)
Click here to listen with your own player (launches your MP3 player)
Archive Access: KSAF Tower
FacilityFrequency
Santa Fe Tower/CTAF119.500

NOTICE

Unauthorized use prohibited. See LiveATC.net Terms of Service


Airport/ARTCC Code
Frequency Search
(e.g., 124.400, 128.75)
Site-wide search
 


Browse Feeds
Top 50 Feeds
HF Oceanic Feeds
Coverage Map
Bad Weather Areas

LiveATC FAQ

Increase Coverage

Contact LiveATC.net
Press Inquiries

LiveATC on iPhone
LiveATC on Android

LiveATC Mobile
(Mobile browser)

ATC Audio Archives
Interesting Recordings

LiveATC Forums


Home Page
About LiveATC.net


Terms of Use
Privacy Policy

AIRMETs/SIGMETs

FAA Airport Status
NAS Status
Arrival Demand


Server Software By:
Icecast.org
Liquidsoap